Time;durP1;ratioP1;P1;durP2;ratioP2;P2;SDS_P1;SDS_P2;PMS_P1;PMS_P2;Temp;Humidity;BMP_temperature;BMP_pressure;BME280_temperature;BME280_humidity;BME280_pressure;Samples;Min_cycle;Max_cycle;Signal;HPM_P1;HPM_P2
2022/09/03 00:01:23;;;;;;;;;2.25;2.00;;;;;20.27;41.06;101145.13;4991033;28;8838;-67
2022/09/03 00:04:00;;;;;;;;;4.50;4.50;;;;;20.24;41.21;101150.00;4988625;28;8845;-68
2022/09/03 00:06:33;;;;;;;;;6.00;4.00;;;;;20.20;41.00;101143.38;4992081;28;8830;-68
2022/09/03 00:09:09;;;;;;;;;6.25;6.00;;;;;20.20;41.44;101137.91;4990640;28;8923;-69
2022/09/03 00:11:52;;;;;;;;;4.50;4.00;;;;;20.19;41.53;101138.16;4990836;28;8852;-67
2022/09/03 00:14:33;;;;;;;;;3.25;3.25;;;;;20.18;41.61;101140.06;4992202;28;8833;-66
2022/09/03 00:17:09;;;;;;;;;4.50;4.50;;;;;20.15;41.43;101137.00;4991737;28;8844;-69
2022/09/03 00:19:47;;;;;;;;;5.00;5.00;;;;;20.11;41.59;101133.13;4981220;28;8842;-67
2022/09/03 00:22:28;;;;;;;;;3.75;3.75;;;;;20.07;41.74;101140.16;4992234;28;8848;-67
2022/09/03 00:24:59;;;;;;;;;5.50;5.50;;;;;20.05;41.81;101142.31;4987765;28;8844;-67
2022/09/03 00:27:27;;;;;;;;;4.25;4.25;;;;;20.04;41.94;101127.81;4977918;28;8952;-67
2022/09/03 00:30:08;;;;;;;;;5.25;5.25;;;;;19.96;42.12;101134.53;5005644;28;8909;-67
2022/09/03 00:32:54;;;;;;;;;4.00;4.00;;;;;19.91;42.02;101122.72;4991638;28;8921;-67
2022/09/03 00:35:41;;;;;;;;;6.75;5.75;;;;;19.85;42.37;101123.69;4988830;28;8932;-67
2022/09/03 00:38:08;;;;;;;;;6.00;6.00;;;;;19.82;42.46;101137.88;4974489;28;8932;-67
2022/09/03 00:40:59;;;;;;;;;5.50;5.50;;;;;19.78;42.50;101126.59;4973476;28;9475;-67
2022/09/03 00:44:13;;;;;;;;;5.25;5.25;;;;;19.75;42.39;101122.47;4990335;28;8826;-67
2022/09/03 00:47:09;;;;;;;;;4.00;4.00;;;;;19.76;42.63;101117.81;4991429;28;8834;-69
2022/09/03 00:49:42;;;;;;;;;5.75;5.00;;;;;19.74;42.49;101112.63;4991846;28;8916;-67
2022/09/03 00:52:30;;;;;;;;;4.75;4.75;;;;;19.72;42.56;101120.22;4990428;28;8853;-69
2022/09/03 00:55:09;;;;;;;;;5.25;5.25;;;;;19.75;42.69;101121.63;4975732;28;8846;-67
2022/09/03 00:57:43;;;;;;;;;4.75;4.75;;;;;19.73;42.56;101121.88;4972085;28;8830;-67
2022/09/03 01:00:17;;;;;;;;;7.00;7.00;;;;;19.68;42.42;101120.97;4972303;28;9562;-67
2022/09/03 01:02:51;;;;;;;;;5.25;4.25;;;;;19.63;42.34;101124.44;4979125;28;9005;-68
2022/09/03 01:05:39;;;;;;;;;5.00;4.00;;;;;19.64;42.57;101125.25;4989638;28;8952;-68
2022/09/03 01:08:20;;;;;;;;;4.25;4.25;;;;;19.63;42.55;101124.44;4991053;28;9563;-68
2022/09/03 01:11:01;;;;;;;;;4.50;4.50;;;;;19.61;42.28;101115.69;4990727;28;8845;-68
2022/09/03 01:13:35;;;;;;;;;4.00;4.00;;;;;19.60;42.41;101129.53;4983238;28;9560;-68
2022/09/03 01:16:26;;;;;;;;;4.00;4.00;;;;;19.55;42.53;101121.25;4956592;28;1021045;-68
2022/09/03 01:18:59;;;;;;;;;5.75;5.25;;;;;19.51;42.40;101118.19;4986349;28;8952;-68
2022/09/03 01:21:45;;;;;;;;;4.50;4.50;;;;;19.52;42.45;101122.56;4988229;28;8852;-69
2022/09/03 01:24:30;;;;;;;;;7.67;7.67;;;;;19.46;42.58;101129.03;4990355;28;9681;-68
2022/09/03 01:27:07;;;;;;;;;6.00;5.00;;;;;19.44;42.89;101132.00;4983160;28;8929;-68
2022/09/03 01:30:01;;;;;;;;;4.00;4.00;;;;;19.48;42.57;101130.44;4987953;28;9551;-68
2022/09/03 01:32:41;;;;;;;;;4.00;4.00;;;;;19.42;42.57;101130.59;4987220;28;8920;-68
2022/09/03 01:35:15;;;;;;;;;3.00;3.00;;;;;19.33;42.64;101134.81;4991129;28;8876;-68
2022/09/03 01:37:49;;;;;;;;;4.00;4.00;;;;;19.34;42.48;101129.09;4991298;28;9685;-68
2022/09/03 01:40:40;;;;;;;;;5.25;5.25;;;;;19.36;42.61;101132.41;4991564;28;8835;-68
2022/09/03 01:43:14;;;;;;;;;3.50;3.50;;;;;19.39;42.36;101129.19;4990886;28;8852;-68
2022/09/03 01:45:53;;;;;;;;;4.00;4.00;;;;;19.32;42.40;101130.41;4991766;28;8896;-67
2022/09/03 01:48:38;;;;;;;;;4.75;4.75;;;;;19.26;42.66;101122.13;4991356;28;8833;-67
2022/09/03 01:51:26;;;;;;;;;4.75;4.75;;;;;19.26;42.75;101130.31;4990565;28;8837;-67
2022/09/03 01:54:16;;;;;;;;;4.50;4.50;;;;;19.22;42.57;101125.59;4987454;28;8958;-67
2022/09/03 01:57:21;;;;;;;;;4.00;4.00;;;;;19.25;42.58;101123.22;4991447;28;8829;-67
2022/09/03 02:00:07;;;;;;;;;7.00;7.00;;;;;19.19;42.45;101126.91;4986092;28;8931;-67
2022/09/03 02:02:42;;;;;;;;;4.00;4.00;;;;;19.14;42.49;101132.28;4988451;28;8991;-67
2022/09/03 02:05:13;;;;;;;;;8.00;6.00;;;;;19.09;42.71;101126.72;4988964;28;9066;-67
2022/09/03 02:07:59;;;;;;;;;5.00;5.00;;;;;19.08;42.84;101124.22;4990772;28;9037;-68
2022/09/03 02:10:31;;;;;;;;;4.67;4.67;;;;;19.07;42.69;101122.56;4984203;28;8833;-68
2022/09/03 02:13:06;;;;;;;;;4.00;4.00;;;;;19.05;42.44;101122.84;4989826;28;8973;-68
2022/09/03 02:15:36;;;;;;;;;4.33;4.33;;;;;19.00;42.53;101120.84;4982144;28;9055;-67
2022/09/03 02:18:07;;;;;;;;;5.33;5.33;;;;;19.00;42.40;101115.38;4990483;28;8900;-67
2022/09/03 02:20:36;;;;;;;;;4.75;4.75;;;;;19.00;42.65;101125.47;4991251;28;9013;-67
2022/09/03 02:23:02;;;;;;;;;8.33;8.33;;;;;18.96;42.65;101118.84;4989127;28;8968;-67
2022/09/03 02:25:36;;;;;;;;;5.00;5.00;;;;;18.95;42.81;101117.16;4991032;28;8949;-67
2022/09/03 02:28:05;;;;;;;;;5.33;5.33;;;;;18.91;42.74;101116.81;4988579;28;8833;-67
2022/09/03 02:30:42;;;;;;;;;5.50;5.50;;;;;18.92;42.65;101112.19;4987360;28;9020;-67
2022/09/03 02:33:09;;;;;;;;;4.00;4.00;;;;;18.92;42.85;101112.19;4990588;28;9087;-68
2022/09/03 02:35:36;;;;;;;;;5.33;5.33;;;;;18.91;42.91;101116.00;4990437;28;8926;-67
2022/09/03 02:38:15;;;;;;;;;4.00;4.00;;;;;18.90;42.84;101112.44;4989195;28;8961;-68
2022/09/03 02:40:43;;;;;;;;;4.67;4.67;;;;;18.86;42.99;101111.28;4990091;28;8826;-67
2022/09/03 02:43:29;;;;;;;;;4.50;4.50;;;;;18.87;43.01;101109.38;4995184;28;8938;-67
2022/09/03 02:46:02;;;;;;;;;4.75;4.00;;;;;18.88;43.11;101103.69;4990393;28;9543;-68
2022/09/03 02:48:29;;;;;;;;;6.00;4.00;;;;;18.85;42.82;101098.72;4991222;28;8849;-67
2022/09/03 02:50:55;;;;;;;;;4.50;4.50;;;;;18.86;43.00;101094.91;4982942;28;8956;-67
2022/09/03 02:53:21;;;;;;;;;5.25;4.50;;;;;18.83;43.01;101102.75;4993699;28;8841;-68
2022/09/03 02:55:48;;;;;;;;;5.75;5.75;;;;;18.78;42.91;101096.13;4994223;28;8862;-67
2022/09/03 02:58:15;;;;;;;;;4.00;4.00;;;;;18.73;43.23;101097.91;4992395;28;8833;-67
2022/09/03 03:00:41;;;;;;;;;5.00;5.00;;;;;18.71;43.01;101095.41;4993512;28;8930;-67
2022/09/03 03:03:08;;;;;;;;;6.00;6.00;;;;;18.66;43.24;101087.09;4993547;28;9018;-68
2022/09/03 03:05:43;;;;;;;;;4.00;4.00;;;;;18.65;43.33;101088.19;4992166;28;8989;-67
2022/09/03 03:08:13;;;;;;;;;5.67;5.00;;;;;18.67;43.22;101090.66;4993856;28;9017;-67
2022/09/03 03:10:43;;;;;;;;;4.00;4.00;;;;;18.63;43.14;101094.94;4993369;28;9028;-67
2022/09/03 03:13:11;;;;;;;;;5.00;5.00;;;;;18.60;43.17;101093.53;4991672;28;9011;-67
2022/09/03 03:15:37;;;;;;;;;5.00;5.00;;;;;18.50;43.15;101090.59;4988119;28;9033;-67
2022/09/03 03:18:04;;;;;;;;;5.00;5.00;;;;;18.50;43.32;101098.78;4992375;28;9018;-67
2022/09/03 03:20:31;;;;;;;;;5.00;5.00;;;;;18.49;43.21;101102.56;4994454;28;9013;-68
2022/09/03 03:23:00;;;;;;;;;5.00;5.00;;;;;18.50;43.41;101096.88;4993671;28;8918;-67
2022/09/03 03:25:26;;;;;;;;;3.50;3.50;;;;;18.54;43.16;101099.94;4990007;28;8933;-67
2022/09/03 03:27:56;;;;;;;;;5.00;5.00;;;;;18.52;43.12;101097.47;4991789;28;8845;-67
2022/09/03 03:30:22;;;;;;;;;3.75;3.75;;;;;18.52;43.22;101094.75;4993244;28;9055;-68
2022/09/03 03:32:52;;;;;;;;;3.00;3.00;;;;;18.57;43.19;101095.91;4993782;28;8945;-67
2022/09/03 03:35:19;;;;;;;;;4.67;4.67;;;;;18.54;43.44;101099.94;4992358;28;9727;-67
2022/09/03 03:37:45;;;;;;;;;4.33;4.33;;;;;18.54;43.53;101099.94;4992295;28;9135;-68
2022/09/03 03:40:12;;;;;;;;;6.00;6.00;;;;;18.54;43.34;101099.94;4992888;28;8932;-67
2022/09/03 03:42:38;;;;;;;;;4.50;3.50;;;;;18.52;43.39;101099.38;4992561;28;9082;-68
2022/09/03 03:45:05;;;;;;;;;5.00;5.00;;;;;18.49;43.50;101097.13;4999976;28;8907;-67
2022/09/03 03:47:33;;;;;;;;;5.33;5.33;;;;;18.44;43.69;101092.41;4990878;28;9351;-67
2022/09/03 03:49:59;;;;;;;;;6.00;5.33;;;;;18.42;43.67;101090.97;4993988;28;9115;-67
2022/09/03 03:52:26;;;;;;;;;5.00;5.00;;;;;18.43;43.82;101093.47;4992835;28;9047;-68
2022/09/03 03:54:53;;;;;;;;;4.00;4.00;;;;;18.40;44.06;101099.41;4993678;28;9065;-68
2022/09/03 03:57:21;;;;;;;;;4.00;4.00;;;;;18.41;44.03;101102.94;4990963;28;9086;-68
2022/09/03 03:59:49;;;;;;;;;5.00;4.67;;;;;18.39;43.91;101102.34;4993326;28;8992;-68
2022/09/03 04:02:16;;;;;;;;;4.00;4.00;;;;;18.33;43.75;101095.97;4991949;28;9000;-68
2022/09/03 04:04:43;;;;;;;;;4.67;4.67;;;;;18.33;43.82;101101.41;4992957;28;9087;-68
2022/09/03 04:07:09;;;;;;;;;4.67;4.00;;;;;18.29;44.12;101095.59;4991852;28;10040;-68
2022/09/03 04:09:36;;;;;;;;;4.33;4.33;;;;;18.29;44.06;101100.22;4992592;28;9097;-68
2022/09/03 04:12:04;;;;;;;;;3.67;3.67;;;;;18.26;44.53;101098.81;4991843;28;9947;-67
2022/09/03 04:14:30;;;;;;;;;5.33;5.33;;;;;18.25;44.09;101107.22;4993375;28;8938;-68
2022/09/03 04:16:57;;;;;;;;;4.00;4.00;;;;;18.20;44.16;101088.88;4991788;28;8998;-68
2022/09/03 04:19:24;;;;;;;;;5.67;5.67;;;;;18.18;44.27;101092.91;4991542;28;9089;-68
2022/09/03 04:21:50;;;;;;;;;4.00;4.00;;;;;18.19;44.43;101094.53;4992755;28;9150;-68
2022/09/03 04:24:16;;;;;;;;;3.67;3.67;;;;;18.17;44.52;101088.53;4992236;28;8918;-68
2022/09/03 04:26:43;;;;;;;;;3.67;3.67;;;;;18.16;44.64;101081.41;4992781;28;9022;-68
2022/09/03 04:29:09;;;;;;;;;5.00;5.00;;;;;18.12;44.66;101089.25;4991408;28;8993;-68
2022/09/03 04:31:37;;;;;;;;;4.67;4.67;;;;;18.11;44.75;101089.47;4992534;28;9030;-68
2022/09/03 04:34:05;;;;;;;;;3.33;3.33;;;;;18.09;44.84;101086.16;4991298;28;9018;-68
2022/09/03 04:36:33;;;;;;;;;4.00;4.00;;;;;18.10;45.04;101085.91;4991250;28;9085;-68
2022/09/03 04:39:03;;;;;;;;;4.67;4.67;;;;;18.07;44.85;101091.00;4989646;28;9073;-67
2022/09/03 04:41:30;;;;;;;;;5.00;4.00;;;;;18.07;44.66;101088.28;4993029;28;9177;-68
2022/09/03 04:43:58;;;;;;;;;4.00;4.00;;;;;18.08;45.08;101092.69;4991476;28;9102;-68
2022/09/03 04:46:26;;;;;;;;;4.00;4.00;;;;;18.04;44.87;101087.69;4991018;28;9095;-68
2022/09/03 04:48:53;;;;;;;;;5.00;5.00;;;;;18.02;44.58;101097.16;4990350;28;9008;-68
2022/09/03 04:51:23;;;;;;;;;4.00;4.00;;;;;17.99;44.82;101094.94;4990771;28;9091;-67
2022/09/03 04:53:55;;;;;;;;;4.00;4.00;;;;;17.97;44.71;101097.88;4990915;28;8918;-68
2022/09/03 04:56:28;;;;;;;;;4.00;4.00;;;;;17.98;44.74;101098.72;4992070;28;9256;-67
2022/09/03 04:58:57;;;;;;;;;6.00;6.00;;;;;17.98;44.69;101095.97;4991452;28;8989;-67
2022/09/03 05:01:27;;;;;;;;;4.00;3.67;;;;;17.95;44.95;101099.22;4991109;28;9187;-68
2022/09/03 05:03:57;;;;;;;;;6.00;6.00;;;;;17.89;44.88;101094.69;4991550;28;9234;-67
2022/09/03 05:06:25;;;;;;;;;4.00;4.00;;;;;17.91;45.08;101093.41;4994871;28;9074;-68
2022/09/03 05:08:54;;;;;;;;;5.00;5.00;;;;;17.91;44.88;101089.84;4985466;28;9110;-68
2022/09/03 05:11:21;;;;;;;;;4.00;4.00;;;;;17.86;44.96;101098.69;4990991;28;9118;-68
2022/09/03 05:13:50;;;;;;;;;3.00;2.67;;;;;17.77;45.29;101100.94;4987602;28;9158;-67
2022/09/03 05:16:17;;;;;;;;;4.00;4.00;;;;;17.76;45.43;101095.75;4990651;28;9000;-67
2022/09/03 05:18:46;;;;;;;;;5.00;5.00;;;;;17.70;45.45;101089.34;4988325;28;9716;-67
2022/09/03 05:21:17;;;;;;;;;5.00;4.00;;;;;17.62;45.55;101088.81;4991938;28;9012;-67
2022/09/03 05:23:46;;;;;;;;;5.00;5.00;;;;;17.64;45.51;101086.72;4990449;28;9008;-68
2022/09/03 05:26:15;;;;;;;;;4.67;4.33;;;;;17.62;45.50;101089.66;4991363;28;9077;-68
2022/09/03 05:28:42;;;;;;;;;3.33;3.33;;;;;17.66;45.34;101092.72;4990953;28;8968;-68
2022/09/03 05:31:12;;;;;;;;;3.67;3.67;;;;;17.63;45.60;101094.06;4990214;28;9013;-66
2022/09/03 05:33:50;;;;;;;;;3.00;3.00;;;;;17.65;45.59;101088.38;4992334;28;9921;-66
2022/09/03 05:36:19;;;;;;;;;3.67;3.67;;;;;17.66;45.46;101084.56;4993059;28;9081;-67
2022/09/03 05:38:48;;;;;;;;;3.33;3.33;;;;;17.61;45.88;101087.19;4991903;28;9175;-66
2022/09/03 05:41:17;;;;;;;;;4.67;4.33;;;;;17.60;45.97;101091.78;4984907;28;9154;-66
2022/09/03 05:43:50;;;;;;;;;6.00;5.00;;;;;17.57;45.89;101084.09;4991415;28;9139;-66
2022/09/03 05:46:17;;;;;;;;;4.33;4.33;;;;;17.57;45.89;101083.25;4992144;28;9180;-67
2022/09/03 05:48:44;;;;;;;;;4.00;4.00;;;;;17.56;46.03;101077.00;4991586;28;9079;-66
2022/09/03 05:51:15;;;;;;;;;4.33;4.33;;;;;17.56;45.91;101077.00;4991314;28;9933;-66
2022/09/03 05:53:45;;;;;;;;;5.00;5.00;;;;;17.60;46.17;101089.06;4990742;28;9109;-67
2022/09/03 05:56:17;;;;;;;;;4.00;4.00;;;;;17.61;46.16;101082.56;4993020;28;9216;-66
2022/09/03 05:58:47;;;;;;;;;6.00;6.00;;;;;17.61;46.26;101085.28;4992262;28;9011;-65
2022/09/03 06:01:26;;;;;;;;;5.33;5.33;;;;;17.62;45.95;101086.09;4991490;28;9294;-66
2022/09/03 06:04:03;;;;;;;;;4.33;4.33;;;;;17.60;46.08;101083.63;4991536;28;9283;-66
2022/09/03 06:06:32;;;;;;;;;5.33;4.33;;;;;17.66;46.19;101079.13;4987675;28;9139;-66
2022/09/03 06:09:01;;;;;;;;;4.00;4.00;;;;;17.65;45.97;101091.09;4983627;28;9067;-67
2022/09/03 06:11:29;;;;;;;;;4.00;4.00;;;;;17.65;46.10;101086.47;4992051;28;9181;-66
2022/09/03 06:14:00;;;;;;;;;6.00;5.33;;;;;17.67;45.95;101088.97;4993069;28;9165;-66
2022/09/03 06:16:32;;;;;;;;;5.00;4.67;;;;;17.63;46.02;101088.59;4985042;28;8981;-66
2022/09/03 06:18:59;;;;;;;;;3.67;3.67;;;;;17.65;46.21;101091.91;4988453;28;9166;-66
2022/09/03 06:21:26;;;;;;;;;3.00;3.00;;;;;17.71;46.11;101092.88;4990369;28;9069;-66
2022/09/03 06:23:55;;;;;;;;;3.33;3.33;;;;;17.74;46.23;101097.84;4991191;28;9161;-65
2022/09/03 06:26:27;;;;;;;;;4.33;4.33;;;;;17.74;46.02;101106.00;4986687;28;8941;-65
2022/09/03 06:28:55;;;;;;;;;5.00;5.00;;;;;17.76;46.10;101093.84;4989832;28;9077;-66
2022/09/03 06:31:22;;;;;;;;;4.67;3.00;;;;;17.72;46.10;101103.53;4991893;28;9214;-66
2022/09/03 06:33:48;;;;;;;;;3.67;3.67;;;;;17.76;46.08;101102.03;4991496;28;9082;-66
2022/09/03 06:36:17;;;;;;;;;5.33;5.00;;;;;17.76;46.02;101095.75;4992582;28;8950;-67
2022/09/03 06:38:45;;;;;;;;;6.00;6.00;;;;;17.77;46.47;101105.56;4991521;28;9138;-66
2022/09/03 06:41:23;;;;;;;;;5.00;4.00;;;;;17.79;46.27;101098.84;4992031;28;9119;-67
2022/09/03 06:44:04;;;;;;;;;3.00;3.00;;;;;17.86;46.45;101095.16;4989230;28;8923;-66
2022/09/03 06:46:33;;;;;;;;;5.00;5.00;;;;;17.84;46.19;101097.31;4991187;28;8991;-65
2022/09/03 06:49:00;;;;;;;;;4.67;4.67;;;;;17.81;46.15;101095.03;4991638;28;8996;-66
2022/09/03 06:51:29;;;;;;;;;5.00;4.00;;;;;17.86;46.37;101103.31;4991409;28;8934;-66
2022/09/03 06:54:05;;;;;;;;;3.00;3.00;;;;;17.83;46.31;101104.66;4991326;28;8981;-67
2022/09/03 06:56:32;;;;;;;;;4.67;4.00;;;;;17.87;46.28;101102.28;4992563;28;8970;-65
2022/09/03 06:59:10;;;;;;;;;4.00;4.00;;;;;17.86;46.05;101103.31;4986394;28;9020;-65
2022/09/03 07:01:39;;;;;;;;;3.00;2.67;;;;;17.96;46.57;101106.31;4989652;28;9130;-66
2022/09/03 07:04:11;;;;;;;;;4.00;4.00;;;;;18.02;46.11;101108.06;4991142;28;8975;-66
2022/09/03 07:06:40;;;;;;;;;4.67;4.00;;;;;18.07;46.37;101110.06;4990887;28;9136;-67
2022/09/03 07:09:08;;;;;;;;;3.67;3.67;;;;;18.12;45.80;101113.75;4989875;28;9189;-65
2022/09/03 07:11:36;;;;;;;;;5.00;5.00;;;;;18.14;45.97;101111.59;4991309;28;9020;-67
2022/09/03 07:14:04;;;;;;;;;4.00;4.00;;;;;18.19;45.84;101114.47;4991280;28;9297;-66
2022/09/03 07:16:35;;;;;;;;;4.00;4.00;;;;;18.23;45.62;101118.38;4991057;28;9074;-66
2022/09/03 07:19:04;;;;;;;;;4.00;4.00;;;;;18.27;45.73;101100.50;4990260;28;9089;-66
2022/09/03 07:21:35;;;;;;;;;4.00;4.00;;;;;18.36;45.62;101108.28;4990763;28;8952;-65
2022/09/03 07:24:04;;;;;;;;;4.67;3.67;;;;;18.38;45.48;101111.59;4992012;28;8964;-66
2022/09/03 07:26:33;;;;;;;;;4.00;4.00;;;;;18.38;45.90;101109.69;4989495;28;9042;-68
2022/09/03 07:29:00;;;;;;;;;4.00;4.00;;;;;18.50;46.99;101115.13;4990176;28;8938;-66
2022/09/03 07:31:35;;;;;;;;;4.00;4.00;;;;;18.62;45.83;101112.38;4989660;28;8942;-67
2022/09/03 07:34:05;;;;;;;;;4.00;4.00;;;;;18.63;45.44;101109.41;4989948;28;8972;-66
2022/09/03 07:36:45;;;;;;;;;5.00;4.00;;;;;18.70;45.38;101112.84;4981796;28;8933;-67
2022/09/03 07:39:15;;;;;;;;;4.75;4.25;;;;;18.74;45.20;101116.75;4992287;28;8848;-67
2022/09/03 07:41:44;;;;;;;;;4.00;4.00;;;;;18.73;44.84;101115.09;4991244;28;8964;-66
2022/09/03 07:44:18;;;;;;;;;4.50;4.50;;;;;18.77;45.36;101119.00;4993016;28;8833;-66
2022/09/03 07:46:46;;;;;;;;;3.00;3.00;;;;;18.87;45.31;101123.00;4991988;28;8834;-66
2022/09/03 07:49:12;;;;;;;;;3.00;3.00;;;;;18.88;45.10;101122.78;4993685;28;8833;-66
2022/09/03 07:51:39;;;;;;;;;5.00;5.00;;;;;18.84;45.07;101127.06;4989004;28;9642;-67
2022/09/03 07:54:09;;;;;;;;;3.25;3.00;;;;;18.95;44.59;101133.53;4993074;28;8845;-67
2022/09/03 07:56:39;;;;;;;;;3.00;3.00;;;;;18.99;45.17;101129.25;4992057;28;8875;-65
2022/09/03 07:59:06;;;;;;;;;5.00;5.00;;;;;19.03;45.13;101128.50;4989500;28;8866;-67
2022/09/03 08:01:34;;;;;;;;;4.00;4.00;;;;;19.07;44.95;101126.13;4993454;28;8944;-66
2022/09/03 08:04:03;;;;;;;;;4.00;4.00;;;;;19.12;45.04;101134.44;4990532;28;8846;-67
2022/09/03 08:06:30;;;;;;;;;4.50;4.50;;;;;19.17;44.94;101126.34;4989986;28;8830;-67
2022/09/03 08:08:59;;;;;;;;;3.00;3.00;;;;;19.20;44.80;101125.84;4992244;28;8838;-66
2022/09/03 08:11:33;;;;;;;;;4.25;4.25;;;;;19.23;44.63;101132.69;4990623;28;8853;-67
2022/09/03 08:14:06;;;;;;;;;3.00;3.00;;;;;19.27;44.61;101126.50;4991168;28;8868;-67
2022/09/03 08:16:35;;;;;;;;;4.00;3.75;;;;;19.34;44.90;101128.28;4992153;28;8849;-66
2022/09/03 08:19:02;;;;;;;;;4.00;4.00;;;;;19.40;44.55;101130.00;4991472;28;8865;-66
2022/09/03 08:21:30;;;;;;;;;4.00;4.00;;;;;19.42;44.79;101136.06;4986094;28;8948;-66
2022/09/03 08:24:02;;;;;;;;;3.00;3.00;;;;;19.45;44.69;101139.13;4992709;28;8817;-67
2022/09/03 08:26:33;;;;;;;;;3.00;3.00;;;;;19.56;44.32;101145.59;4994984;28;8837;-66
2022/09/03 08:29:00;;;;;;;;;5.75;4.00;;;;;19.59;44.66;101145.09;4996293;28;8858;-66
2022/09/03 08:31:28;;;;;;;;;3.25;3.25;;;;;19.64;44.62;101138.91;4993479;28;8948;-66
2022/09/03 08:33:57;;;;;;;;;3.00;3.00;;;;;19.69;44.19;101150.78;4991593;28;8855;-67
2022/09/03 08:36:29;;;;;;;;;4.75;2.75;;;;;19.77;43.77;101146.81;4992183;28;8969;-68
2022/09/03 08:38:58;;;;;;;;;4.00;4.00;;;;;19.80;43.93;101150.94;4993908;28;8825;-66
2022/09/03 08:41:43;;;;;;;;;3.75;3.75;;;;;19.85;44.24;101153.75;4992520;28;8857;-66
2022/09/03 08:44:40;;;;;;;;;3.75;3.75;;;;;19.93;43.75;101147.84;4991117;28;8976;-66
2022/09/03 08:47:28;;;;;;;;;4.25;4.25;;;;;19.97;43.83;101143.56;4991056;28;8842;-67
2022/09/03 08:49:57;;;;;;;;;4.00;4.00;;;;;20.02;43.83;101146.38;4988012;28;8907;-67
2022/09/03 08:52:32;;;;;;;;;2.50;2.50;;;;;20.06;43.83;101149.44;4992613;28;8862;-65
2022/09/03 08:55:26;;;;;;;;;3.00;3.00;;;;;20.14;43.67;101140.81;4992845;28;8849;-67
2022/09/03 08:58:13;;;;;;;;;4.00;4.00;;;;;20.20;43.64;101143.38;4987929;28;8853;-66
2022/09/03 09:01:02;;;;;;;;;3.00;3.00;;;;;20.30;43.42;101139.16;4985876;28;8853;-67
2022/09/03 09:03:52;;;;;;;;;5.00;3.75;;;;;20.34;43.32;101132.91;4987824;28;8824;-66
2022/09/03 09:06:22;;;;;;;;;4.00;4.00;;;;;20.43;43.17;101133.31;4991080;28;8869;-67
2022/09/03 09:08:57;;;;;;;;;6.75;5.00;;;;;20.47;43.09;101143.47;4990614;28;8929;-67
2022/09/03 09:11:28;;;;;;;;;4.00;4.00;;;;;20.52;42.87;101144.66;5001223;28;8897;-66
2022/09/03 09:14:02;;;;;;;;;4.75;4.00;;;;;20.54;43.00;101148.81;4991461;28;8826;-66
2022/09/03 09:16:38;;;;;;;;;2.00;2.00;;;;;20.64;42.87;101134.44;4985113;28;8822;-66
2022/09/03 09:19:30;;;;;;;;;8.25;6.75;;;;;20.70;42.48;101136.13;4992940;28;8830;-66
2022/09/03 09:22:25;;;;;;;;;4.00;4.00;;;;;20.81;42.49;101135.19;4987934;28;8850;-67
2022/09/03 09:24:55;;;;;;;;;4.00;4.00;;;;;20.86;42.52;101145.34;4990055;28;8960;-68
2022/09/03 09:27:23;;;;;;;;;5.50;4.50;;;;;20.94;42.51;101137.56;4988690;28;9592;-67
2022/09/03 09:29:51;;;;;;;;;3.25;3.25;;;;;20.95;41.92;101141.13;4990693;28;9535;-67
2022/09/03 09:32:19;;;;;;;;;4.25;4.25;;;;;21.04;42.27;101138.75;4991158;28;8972;-66
2022/09/03 09:34:47;;;;;;;;;4.25;4.25;;;;;21.10;41.93;101130.31;4990318;28;8845;-67
2022/09/03 09:37:18;;;;;;;;;4.00;4.00;;;;;21.19;41.69;101137.00;4989046;28;8822;-66
2022/09/03 09:39:59;;;;;;;;;5.75;5.75;;;;;21.19;41.92;101134.25;4990095;28;8904;-68
2022/09/03 09:42:28;;;;;;;;;5.25;5.25;;;;;21.13;41.69;101131.72;4990373;28;8892;-66
2022/09/03 09:44:55;;;;;;;;;7.00;7.00;;;;;21.28;42.59;101125.59;4990475;28;8956;-67
2022/09/03 09:47:29;;;;;;;;;4.75;4.75;;;;;21.43;44.00;101134.81;4989039;28;8885;-66
2022/09/03 09:49:59;;;;;;;;;5.00;5.00;;;;;21.48;43.79;101142.25;4986981;28;8967;-66
2022/09/03 09:52:28;;;;;;;;;5.25;5.25;;;;;21.50;44.08;101131.03;4987994;28;8999;-67
2022/09/03 09:55:16;;;;;;;;;3.00;3.00;;;;;21.53;44.24;101133.25;4990192;28;8842;-66
2022/09/03 09:57:43;;;;;;;;;4.50;4.50;;;;;21.56;44.26;101135.47;4990743;28;8829;-67
2022/09/03 10:00:16;;;;;;;;;4.50;4.50;;;;;21.60;44.20;101134.69;4988570;28;8919;-67
2022/09/03 10:02:55;;;;;;;;;4.00;4.00;;;;;21.59;43.38;101133.03;4977555;28;9583;-66
2022/09/03 10:05:29;;;;;;;;;4.50;4.50;;;;;21.65;43.74;101131.97;4991382;28;8861;-66
2022/09/03 10:07:58;;;;;;;;;4.00;4.00;;;;;21.71;43.50;101125.47;4990289;28;8830;-67
2022/09/03 10:10:26;;;;;;;;;4.50;4.50;;;;;21.83;43.63;101138.13;4993126;28;8857;-65
2022/09/03 10:12:57;;;;;;;;;4.25;4.25;;;;;21.86;44.10;101132.97;4992483;28;8853;-65
2022/09/03 10:15:31;;;;;;;;;5.25;4.50;;;;;21.90;43.22;101125.88;4994355;28;8844;-65
2022/09/03 10:18:07;;;;;;;;;4.25;4.25;;;;;21.95;43.25;101127.81;4991881;28;8833;-66
2022/09/03 10:20:54;;;;;;;;;4.00;4.00;;;;;22.00;43.15;101127.88;4973021;28;8943;-67
2022/09/03 10:23:24;;;;;;;;;4.00;4.00;;;;;22.04;43.34;101131.75;4991026;28;8948;-65
2022/09/03 10:26:13;;;;;;;;;4.75;4.75;;;;;22.14;42.65;101126.34;4991893;28;8945;-66
2022/09/03 10:28:41;;;;;;;;;3.00;3.00;;;;;22.13;42.98;101126.63;4992173;28;9665;-66
2022/09/03 10:31:27;;;;;;;;;5.00;5.00;;;;;22.20;41.98;101128.03;4991569;28;8908;-67
2022/09/03 10:34:01;;;;;;;;;3.50;3.00;;;;;22.23;42.08;101123.94;4991877;28;8908;-65
2022/09/03 10:36:45;;;;;;;;;4.50;4.50;;;;;22.21;41.86;101117.91;4990390;28;8896;-66
2022/09/03 10:39:24;;;;;;;;;5.00;5.00;;;;;22.35;41.30;101129.22;4991744;28;8873;-66
2022/09/03 10:42:06;;;;;;;;;7.50;6.75;;;;;22.44;40.43;101117.47;4991223;28;9551;-66
2022/09/03 10:44:46;;;;;;;;;5.25;5.25;;;;;22.51;40.27;101122.72;4992035;28;9558;-66
2022/09/03 10:47:36;;;;;;;;;4.75;4.75;;;;;22.53;40.52;101117.78;4991330;28;8857;-67
2022/09/03 10:50:22;;;;;;;;;5.25;5.25;;;;;22.44;40.85;101114.75;4986139;28;8857;-66
2022/09/03 10:53:04;;;;;;;;;4.75;4.75;;;;;22.57;40.57;101102.44;4989303;28;8853;-66
2022/09/03 10:55:46;;;;;;;;;4.50;4.50;;;;;22.68;40.09;101106.84;4984943;28;8853;-66
2022/09/03 10:58:23;;;;;;;;;4.00;4.00;;;;;22.74;40.15;101104.97;4989750;28;8842;-67
2022/09/03 11:01:02;;;;;;;;;4.00;4.00;;;;;22.81;39.69;101107.44;4990414;28;8841;-67
2022/09/03 11:03:48;;;;;;;;;4.25;4.25;;;;;22.92;39.16;101110.00;4983109;28;8969;-67
2022/09/03 11:06:28;;;;;;;;;4.00;4.00;;;;;22.98;39.28;101102.63;4991593;28;8972;-67
2022/09/03 11:08:59;;;;;;;;;5.00;5.00;;;;;23.02;39.11;101106.47;4990173;28;8960;-66
2022/09/03 11:12:21;;;;;;;;;3.50;3.50;;;;;23.08;39.12;101101.81;4990700;28;9555;-68
2022/09/03 11:15:14;;;;;;;;;4.25;4.25;;;;;23.14;38.31;101115.28;4995728;28;8948;-67
2022/09/03 11:17:51;;;;;;;;;4.00;4.00;;;;;23.16;38.38;101104.00;4997445;28;8846;-66
2022/09/03 11:20:23;;;;;;;;;4.00;4.00;;;;;23.21;38.79;101109.50;4996229;28;8940;-67
2022/09/03 11:22:58;;;;;;;;;5.00;5.00;;;;;23.28;38.97;101106.50;5001078;28;8893;-67
2022/09/03 11:25:31;;;;;;;;;7.00;5.00;;;;;23.32;38.10;101107.63;4994212;28;8829;-66
2022/09/03 11:28:08;;;;;;;;;5.25;5.25;;;;;23.34;38.28;101102.69;4995225;28;8849;-67
2022/09/03 11:30:51;;;;;;;;;4.50;4.50;;;;;23.38;38.30;101101.84;4993162;28;8833;-67
2022/09/03 11:33:23;;;;;;;;;3.00;3.00;;;;;23.45;37.90;101104.31;4995786;28;8903;-68
2022/09/03 11:35:59;;;;;;;;;8.00;7.00;;;;;23.45;38.04;101098.81;4997211;28;8951;-67
2022/09/03 11:38:33;;;;;;;;;6.75;5.25;;;;;23.60;37.61;101098.00;4985784;28;8829;-68
2022/09/03 11:41:21;;;;;;;;;4.75;4.75;;;;;23.74;36.93;101096.41;4995252;28;8829;-66
2022/09/03 11:43:47;;;;;;;;;1.75;1.75;;;;;23.78;36.37;101093.91;4994189;28;8830;-65
2022/09/03 11:46:20;;;;;;;;;4.00;4.00;;;;;23.81;37.10;101087.84;4985725;28;8826;-68
2022/09/03 11:48:51;;;;;;;;;4.00;4.00;;;;;23.81;36.71;101091.44;4994455;28;8846;-67
2022/09/03 11:51:24;;;;;;;;;4.00;3.50;;;;;23.88;36.81;101083.72;4994949;28;8844;-68
2022/09/03 11:54:05;;;;;;;;;4.00;4.00;;;;;23.78;36.99;101085.66;4995179;28;8982;-66
2022/09/03 11:56:34;;;;;;;;;3.75;3.75;;;;;23.75;36.89;101084.31;4992447;28;8814;-66
2022/09/03 11:59:16;;;;;;;;;4.50;4.50;;;;;23.87;36.31;101086.75;4993983;28;8908;-66
2022/09/03 12:01:59;;;;;;;;;5.00;4.00;;;;;23.99;35.98;101081.78;4993012;28;9642;-66
2022/09/03 12:05:04;;;;;;;;;3.00;3.00;;;;;24.07;35.53;101091.41;4994194;28;8822;-66